createdAt,value
2023-04-11T00:00:10.166Z,71.30
2023-04-11T00:01:15.062Z,71.08
2023-04-11T00:02:17.638Z,71.33
2023-04-11T00:03:20.389Z,71.40
2023-04-11T00:04:24.784Z,71.31
2023-04-11T00:05:28.279Z,71.21
2023-04-11T00:06:32.566Z,70.99
2023-04-11T00:07:35.323Z,70.34
2023-04-11T00:08:37.720Z,70.20
2023-04-11T00:09:39.681Z,70.12
2023-04-11T00:10:43.218Z,70.22
2023-04-11T00:11:46.023Z,70.21
2023-04-11T00:12:48.499Z,70.48
2023-04-11T00:13:50.520Z,70.61
2023-04-11T00:14:53.298Z,70.79
2023-04-11T00:15:56.041Z,70.94
2023-04-11T00:17:00.290Z,71.05
2023-04-11T00:18:02.471Z,71.12
2023-04-11T00:19:06.452Z,71.16
2023-04-11T00:20:11.304Z,71.10
2023-04-11T00:21:13.374Z,71.14
2023-04-11T00:22:17.727Z,71.23
2023-04-11T00:23:20.359Z,71.36
2023-04-11T00:24:22.568Z,71.06
2023-04-11T00:25:25.006Z,71.32
2023-04-11T00:26:27.247Z,71.47
2023-04-11T00:27:29.580Z,71.54
2023-04-11T00:28:31.910Z,71.47
2023-04-11T00:29:35.117Z,71.65
2023-04-11T00:30:38.886Z,71.43
2023-04-11T00:31:41.293Z,71.43
2023-04-11T00:32:45.412Z,71.51
2023-04-11T00:33:47.540Z,71.45
2023-04-11T00:34:49.912Z,71.78
2023-04-11T00:35:51.934Z,71.85
2023-04-11T00:36:54.575Z,71.85
2023-04-11T00:37:58.051Z,71.84
2023-04-11T00:39:03.465Z,71.52
2023-04-11T00:40:07.137Z,71.29
2023-04-11T00:41:09.427Z,71.17
2023-04-11T00:42:12.836Z,71.27
2023-04-11T00:43:15.127Z,71.37
2023-04-11T00:44:17.451Z,71.31
2023-04-11T00:45:19.828Z,71.27
2023-04-11T00:46:22.180Z,71.26
2023-04-11T00:47:25.306Z,71.15
2023-04-11T00:48:27.962Z,70.95
2023-04-11T00:49:31.407Z,70.93
2023-04-11T00:50:35.484Z,70.82
2023-04-11T00:51:37.981Z,70.58
2023-04-11T00:52:40.714Z,70.68
2023-04-11T00:53:45.121Z,70.82
2023-04-11T00:54:48.060Z,71.01
2023-04-11T00:55:50.901Z,70.79
2023-04-11T00:56:53.402Z,70.79
2023-04-11T00:57:56.117Z,71.00
2023-04-11T00:58:59.186Z,70.86
2023-04-11T01:00:03.418Z,70.90
2023-04-11T01:01:08.509Z,70.83
2023-04-11T01:02:11.396Z,70.43
2023-04-11T01:03:13.844Z,70.21
2023-04-11T01:04:16.982Z,70.18
2023-04-11T01:05:19.504Z,70.08
2023-04-11T01:06:23.807Z,69.76
2023-04-11T01:07:26.157Z,69.88
2023-04-11T01:08:28.662Z,69.86
2023-04-11T01:09:32.904Z,69.86
2023-04-11T01:10:36.217Z,69.68
2023-04-11T01:11:39.226Z,69.72
2023-04-11T01:12:43.557Z,70.04
2023-04-11T01:13:46.533Z,70.22
2023-04-11T01:14:48.951Z,70.53
2023-04-11T01:15:51.379Z,70.74
2023-04-11T01:16:55.859Z,70.81
2023-04-11T01:18:00.168Z,70.95
2023-04-11T01:19:03.757Z,71.04
2023-04-11T01:20:08.247Z,71.20
2023-04-11T01:21:11.516Z,71.39
2023-04-11T01:22:17.491Z,71.42
2023-04-11T01:23:27.050Z,71.42
2023-04-11T01:24:30.073Z,71.44
2023-04-11T01:25:32.449Z,71.46
2023-04-11T01:26:35.197Z,71.33
2023-04-11T01:27:37.885Z,71.37
2023-04-11T01:28:40.100Z,71.36
2023-04-11T01:29:43.152Z,71.33
2023-04-11T01:30:46.032Z,71.10
2023-04-11T01:31:51.967Z,71.16
2023-04-11T01:32:54.588Z,71.23
2023-04-11T01:34:01.346Z,71.26
2023-04-11T01:35:05.081Z,71.18
2023-04-11T01:36:08.750Z,71.35
2023-04-11T01:37:11.106Z,71.79
2023-04-11T01:38:13.210Z,72.13
2023-04-11T01:39:15.444Z,72.48
2023-04-11T01:40:18.924Z,72.76
2023-04-11T01:41:23.176Z,73.13
2023-04-11T01:42:27.220Z,73.19
2023-04-11T01:43:29.728Z,73.18
2023-04-11T01:44:32.972Z,73.00
2023-04-11T01:45:37.922Z,72.81
2023-04-11T01:46:40.908Z,72.55
2023-04-11T01:47:43.395Z,72.39
2023-04-11T01:48:48.926Z,72.04
2023-04-11T01:49:53.160Z,71.85
2023-04-11T01:50:56.058Z,71.61
2023-04-11T01:51:58.248Z,71.38
2023-04-11T01:53:01.484Z,71.27
2023-04-11T01:54:05.538Z,71.43
2023-04-11T01:55:08.297Z,71.34
2023-04-11T01:56:12.545Z,71.50
2023-04-11T01:57:14.800Z,71.92
2023-04-11T01:58:16.905Z,72.22
2023-04-11T01:59:18.932Z,72.37
2023-04-11T02:00:21.839Z,72.65
2023-04-11T02:01:24.380Z,72.87
2023-04-11T02:02:26.731Z,73.04
2023-04-11T02:03:28.939Z,73.15
2023-04-11T02:04:32.515Z,73.18
2023-04-11T02:05:35.078Z,73.37
2023-04-11T02:06:38.053Z,73.64
2023-04-11T02:07:40.570Z,73.61
2023-04-11T02:08:43.841Z,73.85
2023-04-11T02:09:47.077Z,74.35
2023-04-11T02:10:49.815Z,74.40
2023-04-11T02:11:52.073Z,74.53
2023-04-11T02:12:54.230Z,74.82
2023-04-11T02:13:56.252Z,74.89
2023-04-11T02:14:58.389Z,74.95
2023-04-11T02:16:11.256Z,74.57
2023-04-11T02:17:13.896Z,74.44
2023-04-11T02:18:16.136Z,74.24
2023-04-11T02:19:20.500Z,74.22
2023-04-11T02:20:23.438Z,74.08
2023-04-11T02:21:26.257Z,73.92
2023-04-11T02:22:28.189Z,73.92
2023-04-11T02:23:30.147Z,73.66
2023-04-11T02:24:32.394Z,73.48
2023-04-11T02:25:34.812Z,73.84
2023-04-11T02:26:37.427Z,74.00
2023-04-11T02:27:40.006Z,73.99
2023-04-11T02:28:42.225Z,73.79
2023-04-11T02:29:44.443Z,73.57
2023-04-11T02:30:46.652Z,73.70
2023-04-11T02:31:49.345Z,73.82
2023-04-11T02:32:52.939Z,73.85
2023-04-11T02:33:55.542Z,73.72
2023-04-11T02:34:57.572Z,73.77
2023-04-11T02:36:00.180Z,73.91
2023-04-11T02:37:03.436Z,73.81
2023-04-11T02:38:05.634Z,73.84
2023-04-11T02:39:07.641Z,73.96
2023-04-11T02:40:10.777Z,73.82
2023-04-11T02:41:13.447Z,73.99
2023-04-11T02:42:15.312Z,73.97
2023-04-11T02:43:17.289Z,74.37
2023-04-11T02:44:19.872Z,74.48
2023-04-11T02:45:22.714Z,74.42
2023-04-11T02:46:25.331Z,74.23
2023-04-11T02:47:27.709Z,74.03
2023-04-11T02:48:32.695Z,74.10
2023-04-11T02:49:34.760Z,74.09
2023-04-11T02:50:41.366Z,74.20
2023-04-11T02:51:43.937Z,74.52
2023-04-11T02:52:48.692Z,74.85
2023-04-11T02:53:53.816Z,74.96
2023-04-11T02:54:56.338Z,75.04
2023-04-11T02:55:58.320Z,75.15
2023-04-11T02:57:01.600Z,74.79
2023-04-11T02:58:03.686Z,74.87
2023-04-11T02:59:07.126Z,75.10
2023-04-11T03:00:11.807Z,75.23
2023-04-11T03:01:20.885Z,75.42
2023-04-11T03:02:23.379Z,75.55
2023-04-11T03:03:25.669Z,75.31
2023-04-11T03:04:28.886Z,75.59
2023-04-11T03:05:32.975Z,75.82
2023-04-11T03:06:35.565Z,75.42
2023-04-11T03:07:40.363Z,75.11
2023-04-11T03:08:43.907Z,75.23
2023-04-11T03:09:46.400Z,75.04
2023-04-11T03:10:48.394Z,75.53
2023-04-11T03:11:52.837Z,75.59
2023-04-11T03:12:55.284Z,75.72
2023-04-11T03:13:57.804Z,75.50
2023-04-11T03:14:59.938Z,75.06
2023-04-11T03:16:03.557Z,74.77
2023-04-11T03:17:06.922Z,74.99
2023-04-11T03:18:09.057Z,74.80
2023-04-11T03:19:13.366Z,74.78
2023-04-11T03:20:17.919Z,74.92
2023-04-11T03:21:20.596Z,74.78
2023-04-11T03:22:24.288Z,75.03
2023-04-11T03:23:26.614Z,74.93
2023-04-11T03:24:29.458Z,74.61
2023-04-11T03:25:31.780Z,74.35
2023-04-11T03:26:35.945Z,74.50
2023-04-11T03:27:40.859Z,74.71
2023-04-11T03:28:43.112Z,74.33
2023-04-11T03:29:45.315Z,74.24
2023-04-11T03:30:49.967Z,74.46
2023-04-11T03:31:54.040Z,74.59
2023-04-11T03:32:58.931Z,74.34
2023-04-11T03:34:02.085Z,74.25
2023-04-11T03:35:05.285Z,74.11
2023-04-11T03:36:08.949Z,73.93
2023-04-11T03:37:11.427Z,73.68
2023-04-11T03:38:14.366Z,74.08
2023-04-11T03:39:16.848Z,74.10
2023-04-11T03:40:19.514Z,73.58
2023-04-11T03:41:26.262Z,73.58
2023-04-11T03:42:29.063Z,73.65
2023-04-11T03:43:33.537Z,74.11
2023-04-11T03:44:36.033Z,73.77
2023-04-11T03:45:38.033Z,73.24
2023-04-11T03:46:42.199Z,73.33
2023-04-11T03:47:45.656Z,73.12
2023-04-11T03:48:49.418Z,73.24
2023-04-11T03:49:52.890Z,72.99
2023-04-11T03:50:55.854Z,72.97
2023-04-11T03:52:00.258Z,73.06
2023-04-11T03:53:03.633Z,72.96
2023-04-11T03:54:05.942Z,73.40
2023-04-11T03:55:10.542Z,73.78
2023-04-11T03:56:14.392Z,72.94
2023-04-11T03:57:16.487Z,73.78
2023-04-11T03:58:20.927Z,73.59
2023-04-11T03:59:23.557Z,73.15
2023-04-11T04:00:30.640Z,72.62
2023-04-11T04:01:37.834Z,71.99
2023-04-11T04:02:40.412Z,71.84
2023-04-11T04:03:43.586Z,70.73
2023-04-11T04:04:51.842Z,69.96
2023-04-11T04:05:56.245Z,69.68
2023-04-11T04:06:58.901Z,69.61
2023-04-11T04:08:04.225Z,69.87
2023-04-11T04:09:09.284Z,69.81
2023-04-11T04:10:19.609Z,69.43
2023-04-11T04:11:23.664Z,69.74
2023-04-11T04:12:27.838Z,69.46
2023-04-11T04:13:32.121Z,69.51
2023-04-11T04:14:38.864Z,69.97
2023-04-11T04:15:41.902Z,70.20
2023-04-11T04:16:44.821Z,70.17
2023-04-11T04:17:49.141Z,69.94
2023-04-11T04:18:53.386Z,70.15
2023-04-11T04:19:56.585Z,70.19
2023-04-11T04:20:59.357Z,70.08
2023-04-11T04:22:03.386Z,70.21
2023-04-11T04:23:07.340Z,70.47
2023-04-11T04:24:11.771Z,70.51
2023-04-11T04:25:27.565Z,70.37
2023-04-11T04:26:31.990Z,70.47
2023-04-11T04:27:36.766Z,70.58
2023-04-11T04:28:40.333Z,70.61
2023-04-11T04:29:47.316Z,70.49
2023-04-11T04:30:54.352Z,70.15
2023-04-11T04:31:59.391Z,70.23
2023-04-11T04:33:04.059Z,70.10
2023-04-11T04:34:10.608Z,70.05
2023-04-11T04:35:16.003Z,69.68
2023-04-11T04:36:18.519Z,69.56
2023-04-11T04:37:24.373Z,69.57
2023-04-11T04:38:29.149Z,69.37
2023-04-11T04:39:33.469Z,69.59
2023-04-11T04:40:38.424Z,69.48
2023-04-11T04:41:41.157Z,69.58
2023-04-11T04:42:44.212Z,69.96
2023-04-11T04:43:48.269Z,69.85
2023-04-11T04:45:05.532Z,69.79
2023-04-11T04:46:10.319Z,69.86
2023-04-11T04:47:23.530Z,69.68
2023-04-11T04:48:26.096Z,69.66
2023-04-11T04:49:28.955Z,69.45
2023-04-11T04:50:31.303Z,69.88
2023-04-11T04:51:33.426Z,69.39
2023-04-11T04:52:36.197Z,69.36
2023-04-11T04:53:39.102Z,69.51
2023-04-11T04:54:43.113Z,69.27
2023-04-11T04:55:45.816Z,69.49
2023-04-11T04:56:48.685Z,68.90
2023-04-11T04:57:51.425Z,69.23
2023-04-11T04:58:54.282Z,69.01
2023-04-11T04:59:57.583Z,68.81
2023-04-11T05:01:02.328Z,68.70
2023-04-11T05:02:05.659Z,68.44
2023-04-11T05:03:08.365Z,68.66
2023-04-11T05:04:11.404Z,68.08
2023-04-11T05:05:18.789Z,68.12
2023-04-11T05:06:22.065Z,67.99
2023-04-11T05:07:25.935Z,68.31
2023-04-11T05:08:28.264Z,68.04
2023-04-11T05:09:32.413Z,67.54
2023-04-11T05:10:39.371Z,67.64
2023-04-11T05:11:41.798Z,67.49
2023-04-11T05:12:44.132Z,67.50
2023-04-11T05:13:47.348Z,67.67
2023-04-11T05:14:52.489Z,67.53
2023-04-11T05:15:54.760Z,67.49
2023-04-11T05:16:59.093Z,67.17
2023-04-11T05:19:14.998Z,67.28
2023-04-11T05:20:19.419Z,66.81
2023-04-11T05:21:22.649Z,66.47
2023-04-11T05:22:26.670Z,66.21
2023-04-11T05:23:30.647Z,66.38
2023-04-11T05:24:34.705Z,66.31
2023-04-11T05:25:37.157Z,66.41
2023-04-11T05:26:40.294Z,66.17
2023-04-11T05:27:42.800Z,66.34
2023-04-11T05:28:45.159Z,66.21
2023-04-11T05:29:49.051Z,66.25
2023-04-11T05:30:52.099Z,66.22
2023-04-11T05:31:55.201Z,66.44
2023-04-11T05:32:57.971Z,66.20
2023-04-11T05:34:00.891Z,66.09
2023-04-11T05:35:03.652Z,66.05
2023-04-11T05:36:14.824Z,66.07
2023-04-11T05:37:17.055Z,66.23
2023-04-11T05:38:20.576Z,66.47
2023-04-11T05:39:22.876Z,66.47
2023-04-11T05:40:25.617Z,66.65
2023-04-11T05:41:28.198Z,66.59
2023-04-11T05:42:30.793Z,66.26
2023-04-11T05:43:35.791Z,65.53
2023-04-11T05:44:39.549Z,64.92
2023-04-11T05:45:44.382Z,64.49
2023-04-11T05:46:47.224Z,63.92
2023-04-11T05:47:50.062Z,63.18
2023-04-11T05:48:53.265Z,63.52
2023-04-11T05:49:55.361Z,63.43
2023-04-11T05:50:59.749Z,63.80
2023-04-11T05:52:02.082Z,63.64
2023-04-11T05:53:04.905Z,63.46
2023-04-11T05:54:07.188Z,62.70
2023-04-11T05:55:10.431Z,62.57
2023-04-11T05:56:13.113Z,62.56
2023-04-11T05:57:16.964Z,62.58
2023-04-11T05:58:19.475Z,62.32
2023-04-11T05:59:26.998Z,61.78
2023-04-11T06:00:31.438Z,61.49
2023-04-11T06:01:34.389Z,61.37
2023-04-11T06:02:36.756Z,61.10
2023-04-11T06:03:39.285Z,61.17
2023-04-11T06:04:41.832Z,61.03
2023-04-11T06:05:44.193Z,61.15
2023-04-11T06:06:48.232Z,60.72
2023-04-11T06:07:51.279Z,60.46
2023-04-11T06:08:54.751Z,60.00
2023-04-11T06:09:58.184Z,60.39
2023-04-11T06:11:00.796Z,60.12
2023-04-11T06:12:03.436Z,60.12
2023-04-11T06:13:06.825Z,59.30
2023-04-11T06:14:09.202Z,59.87
2023-04-11T06:15:13.741Z,60.09
2023-04-11T06:16:16.754Z,59.41
2023-04-11T06:17:19.142Z,59.56
2023-04-11T06:18:21.493Z,59.35
2023-04-11T06:19:23.763Z,59.01
2023-04-11T06:20:26.579Z,58.66
2023-04-11T06:21:31.355Z,58.99
2023-04-11T06:22:33.823Z,58.32
2023-04-11T06:23:35.745Z,58.82
2023-04-11T06:24:39.384Z,58.43
2023-04-11T06:25:41.659Z,58.06
2023-04-11T06:26:44.577Z,58.14
2023-04-11T06:27:48.185Z,57.99
2023-04-11T06:28:50.822Z,57.87
2023-04-11T06:29:53.014Z,57.08
2023-04-11T06:30:55.166Z,57.50
2023-04-11T06:31:59.729Z,57.98
2023-04-11T06:33:01.905Z,57.27
2023-04-11T06:34:04.114Z,56.88
2023-04-11T06:35:07.057Z,57.03
2023-04-11T06:36:11.058Z,57.44
2023-04-11T06:37:15.405Z,57.25
2023-04-11T06:38:17.507Z,57.70
2023-04-11T06:39:21.398Z,57.86
2023-04-11T06:40:23.939Z,56.79
2023-04-11T06:41:26.068Z,56.71
2023-04-11T06:42:28.476Z,56.77
2023-04-11T06:43:31.536Z,56.23
2023-04-11T06:44:34.705Z,55.91
2023-04-11T06:45:36.872Z,59.33
2023-04-11T06:46:39.014Z,58.37
2023-04-11T06:47:41.194Z,55.32
2023-04-11T06:48:43.467Z,57.47
2023-04-11T06:49:45.461Z,59.28
2023-04-11T06:50:49.317Z,57.69
2023-04-11T06:51:51.774Z,58.31
2023-04-11T06:52:53.774Z,57.90
2023-04-11T06:53:56.430Z,56.72
2023-04-11T06:54:59.223Z,58.27
2023-04-11T06:56:03.725Z,54.57
2023-04-11T06:57:08.313Z,55.84
2023-04-11T06:58:10.466Z,55.55
2023-04-11T06:59:13.481Z,55.55
2023-04-11T07:00:16.438Z,55.22
2023-04-11T07:01:20.027Z,58.71
2023-04-11T07:02:24.397Z,54.56
2023-04-11T07:03:26.948Z,55.23
2023-04-11T07:04:29.320Z,54.82
2023-04-11T07:05:33.708Z,55.83
2023-04-11T07:06:35.997Z,54.74
2023-04-11T07:07:39.176Z,54.14
2023-04-11T07:09:53.067Z,54.88
2023-04-11T07:10:55.052Z,52.95
2023-04-11T07:11:57.042Z,55.95
2023-04-11T07:13:02.440Z,53.17
2023-04-11T07:14:05.437Z,53.71
2023-04-11T07:15:10.455Z,53.14
2023-04-11T07:16:13.054Z,52.81
2023-04-11T07:17:15.790Z,52.37
2023-04-11T07:18:18.489Z,53.75
2023-04-11T07:19:20.598Z,53.20
2023-04-11T07:20:23.153Z,51.93
2023-04-11T07:21:29.095Z,54.71
2023-04-11T07:22:31.214Z,51.74
2023-04-11T07:23:33.052Z,52.87
2023-04-11T07:24:34.928Z,52.94
2023-04-11T07:25:39.044Z,50.60
2023-04-11T07:26:41.812Z,50.60
2023-04-11T07:27:45.685Z,51.12
2023-04-11T07:28:47.814Z,50.92
2023-04-11T07:29:50.515Z,53.03
2023-04-11T07:30:52.897Z,50.65
2023-04-11T07:31:55.446Z,50.19
2023-04-11T07:32:58.184Z,50.26
2023-04-11T07:34:00.181Z,51.08
2023-04-11T07:35:03.099Z,51.08
2023-04-11T07:36:07.560Z,51.96
2023-04-11T07:37:10.564Z,53.16
2023-04-11T07:38:13.941Z,53.01
2023-04-11T07:39:16.403Z,50.42
2023-04-11T07:40:18.650Z,52.23
2023-04-11T07:41:20.793Z,52.39
2023-04-11T07:42:22.818Z,51.20
2023-04-11T07:43:29.710Z,49.77
2023-04-11T07:44:32.254Z,50.16
2023-04-11T07:45:35.852Z,50.26
2023-04-11T07:46:38.674Z,51.02
2023-04-11T07:47:40.757Z,52.39
2023-04-11T07:48:43.050Z,50.07
2023-04-11T07:49:45.149Z,50.72
2023-04-11T07:50:48.272Z,49.62
2023-04-11T07:51:50.895Z,49.72
2023-04-11T07:52:53.114Z,51.63
2023-04-11T07:53:55.501Z,50.58
2023-04-11T07:54:58.943Z,50.88
2023-04-11T07:56:02.073Z,52.07
2023-04-11T07:57:04.791Z,49.84
2023-04-11T07:58:07.491Z,50.07
2023-04-11T07:59:11.487Z,51.12
2023-04-11T08:00:20.582Z,50.80
2023-04-11T08:01:24.432Z,51.39
2023-04-11T08:02:26.859Z,48.83
2023-04-11T08:03:29.580Z,50.24
2023-04-11T08:04:34.704Z,50.70
2023-04-11T08:05:37.158Z,50.00
2023-04-11T08:06:39.662Z,50.05
2023-04-11T08:07:41.894Z,49.39
2023-04-11T08:08:45.523Z,49.07
2023-04-11T08:09:47.742Z,49.42
2023-04-11T08:10:51.999Z,49.00
2023-04-11T08:11:56.143Z,48.64
2023-04-11T08:12:58.550Z,49.25
2023-04-11T08:14:00.681Z,50.86
2023-04-11T08:15:04.335Z,52.20
2023-04-11T08:16:09.694Z,49.23
2023-04-11T08:17:25.096Z,47.82
2023-04-11T08:18:20.178Z,47.33
2023-04-11T08:19:22.503Z,49.02
2023-04-11T08:20:25.866Z,46.94
2023-04-11T08:21:28.003Z,46.77
2023-04-11T08:22:32.957Z,48.54
2023-04-11T08:23:36.623Z,47.46
2023-04-11T08:24:38.770Z,46.07
2023-04-11T08:25:42.036Z,47.22
2023-04-11T08:26:45.130Z,46.01
2023-04-11T08:27:47.661Z,48.78
2023-04-11T08:28:49.790Z,47.48
2023-04-11T08:29:51.705Z,48.45
2023-04-11T08:30:55.825Z,48.81
2023-04-11T08:31:57.893Z,50.49
2023-04-11T08:33:00.230Z,49.64
2023-04-11T08:34:05.367Z,47.75
2023-04-11T08:35:08.055Z,49.01
2023-04-11T08:36:11.684Z,46.54
2023-04-11T08:37:13.810Z,49.11
2023-04-11T08:38:16.508Z,47.45
2023-04-11T08:39:18.794Z,48.05
2023-04-11T08:40:21.630Z,48.62
2023-04-11T08:41:23.539Z,49.73
2023-04-11T08:42:30.182Z,46.33
2023-04-11T08:43:38.311Z,47.90
2023-04-11T08:44:40.469Z,48.78
2023-04-11T08:58:35.953Z,46.77
2023-04-11T08:59:50.691Z,49.01
2023-04-11T09:01:02.737Z,48.08
2023-04-11T09:02:10.002Z,45.93
2023-04-11T09:03:15.047Z,44.19
2023-04-11T09:04:17.340Z,46.72
2023-04-11T09:05:28.391Z,44.07
2023-04-11T09:06:31.862Z,44.94
2023-04-11T09:07:40.935Z,44.23
2023-04-11T09:08:43.205Z,45.42
2023-04-11T09:09:45.708Z,45.06
2023-04-11T09:10:48.680Z,45.94
2023-04-11T09:11:53.000Z,45.41
2023-04-11T09:12:56.557Z,44.73
2023-04-11T09:14:08.865Z,44.07
2023-04-11T09:15:19.310Z,44.26
2023-04-11T09:16:21.622Z,45.16
2023-04-11T09:17:24.365Z,44.68
2023-04-11T09:18:35.445Z,45.58
2023-04-11T09:19:38.307Z,44.67
2023-04-11T09:20:41.257Z,43.45
2023-04-11T09:21:51.032Z,44.30
2023-04-11T09:22:54.327Z,43.70
2023-04-11T09:24:16.730Z,44.67
2023-04-11T09:25:20.948Z,44.14
2023-04-11T09:26:30.059Z,43.81
2023-04-11T09:27:32.142Z,43.87
2023-04-11T09:28:48.018Z,44.12
2023-04-11T09:29:50.366Z,44.42
2023-04-11T09:30:57.214Z,44.84
2023-04-11T09:31:59.651Z,45.01
2023-04-11T09:33:23.841Z,46.07
2023-04-11T09:34:27.814Z,46.27
2023-04-11T09:35:30.107Z,45.92
2023-04-11T09:36:32.393Z,44.78
2023-04-11T09:37:47.301Z,45.06
2023-04-11T09:38:50.805Z,44.59
2023-04-11T09:39:59.423Z,44.34
2023-04-11T09:41:03.585Z,46.58
2023-04-11T09:42:25.782Z,45.59
2023-04-11T09:43:31.293Z,47.86
2023-04-11T09:44:38.522Z,43.91
2023-04-11T09:45:51.674Z,44.43
2023-04-11T09:46:59.382Z,44.64
2023-04-11T09:48:01.765Z,45.82
2023-04-11T09:49:04.610Z,46.51
2023-04-11T09:50:08.395Z,46.63
2023-04-11T09:51:11.501Z,45.67
2023-04-11T09:52:15.928Z,45.51
2023-04-11T09:53:18.853Z,47.53
2023-04-11T09:54:21.926Z,46.14
2023-04-11T09:55:25.423Z,44.71
2023-04-11T09:56:31.430Z,43.46
2023-04-11T09:57:34.440Z,43.75
2023-04-11T09:58:38.934Z,43.67
2023-04-11T09:59:42.412Z,43.99
2023-04-11T10:00:47.896Z,46.91
2023-04-11T10:01:51.304Z,43.63
2023-04-11T10:02:54.450Z,46.80
2023-04-11T10:03:58.333Z,45.53
2023-04-11T10:05:03.331Z,46.17
2023-04-11T10:06:09.706Z,43.71
2023-04-11T10:07:16.337Z,41.75
2023-04-11T10:08:32.200Z,42.45
2023-04-11T10:09:42.975Z,42.71
2023-04-11T10:10:46.036Z,42.52
2023-04-11T10:11:48.648Z,43.19
2023-04-11T10:12:51.200Z,43.70
2023-04-11T10:13:53.521Z,42.91
2023-04-11T10:14:56.442Z,43.48
2023-04-11T10:16:10.860Z,42.94
2023-04-11T10:17:22.137Z,42.82
2023-04-11T10:18:22.861Z,44.02
2023-04-11T10:19:27.987Z,43.48
2023-04-11T10:20:37.356Z,43.42
2023-04-11T10:21:41.846Z,43.51
2023-04-11T10:22:53.641Z,43.77
2023-04-11T10:24:20.846Z,44.21
2023-04-11T10:25:24.286Z,45.09
2023-04-11T10:26:47.692Z,43.68
2023-04-11T10:28:00.936Z,43.48
2023-04-11T10:29:08.384Z,44.53
2023-04-11T10:30:12.455Z,43.10
2023-04-11T10:31:16.906Z,43.54
2023-04-11T10:32:22.180Z,42.95
2023-04-11T10:33:26.512Z,42.95
2023-04-11T10:34:28.945Z,43.10
2023-04-11T10:35:31.617Z,43.01
2023-04-11T10:38:06.896Z,42.56
2023-04-11T10:39:09.317Z,42.72
2023-04-11T10:40:12.919Z,43.26
2023-04-11T10:41:28.018Z,43.44
2023-04-11T10:42:45.079Z,42.96
2023-04-11T10:43:47.884Z,42.58
2023-04-11T10:45:10.734Z,43.26
2023-04-11T10:46:24.586Z,43.14
2023-04-11T10:47:28.354Z,42.85
2023-04-11T10:48:30.927Z,42.01
2023-04-11T10:49:38.610Z,41.80
2023-04-11T10:50:43.891Z,42.08
2023-04-11T10:51:46.538Z,42.68
2023-04-11T10:52:49.141Z,41.95
2023-04-11T10:53:52.500Z,42.12
2023-04-11T10:54:55.433Z,42.39
2023-04-11T10:55:58.392Z,42.50
2023-04-11T10:57:01.597Z,42.55
2023-04-11T10:58:07.113Z,42.55
2023-04-11T10:59:34.589Z,42.85
2023-04-11T11:00:53.583Z,41.68
2023-04-11T11:01:57.035Z,41.35
2023-04-11T11:03:01.146Z,41.62
2023-04-11T11:04:04.436Z,40.89
2023-04-11T11:05:18.589Z,41.54
2023-04-11T11:06:22.179Z,41.32
2023-04-11T11:07:24.743Z,42.05
2023-04-11T11:08:44.241Z,42.05
2023-04-11T11:10:13.301Z,42.45
2023-04-11T11:11:16.808Z,42.03
2023-04-11T11:12:22.156Z,41.89
2023-04-11T11:13:47.262Z,41.22
2023-04-11T11:14:54.758Z,42.31
2023-04-11T11:15:58.008Z,42.12
2023-04-11T11:17:00.699Z,41.67
2023-04-11T11:18:07.974Z,42.03
2023-04-11T11:19:13.490Z,42.39
2023-04-11T11:20:20.156Z,42.34
2023-04-11T11:21:28.096Z,42.85
2023-04-11T11:22:31.514Z,43.44
2023-04-11T11:23:38.909Z,43.04
2023-04-11T11:24:41.339Z,43.86
2023-04-11T11:25:47.143Z,43.86
2023-04-11T11:26:49.930Z,43.87
2023-04-11T11:28:00.870Z,43.90
2023-04-11T11:29:05.044Z,43.98
2023-04-11T11:30:17.952Z,44.55
2023-04-11T11:31:22.109Z,44.31
2023-04-11T11:32:31.640Z,44.53
2023-04-11T11:33:37.568Z,44.39
2023-04-11T11:34:40.976Z,43.77
2023-04-11T11:35:47.063Z,44.47
2023-04-11T11:36:51.057Z,44.18
2023-04-11T11:37:54.426Z,43.70
2023-04-11T11:38:58.935Z,42.86
2023-04-11T11:40:03.861Z,43.55
2023-04-11T11:41:06.710Z,43.37
2023-04-11T11:42:09.096Z,42.39
2023-04-11T11:43:11.388Z,42.26
2023-04-11T11:44:24.899Z,42.79
2023-04-11T11:45:27.981Z,42.12
2023-04-11T11:46:33.313Z,41.69
2023-04-11T11:47:43.248Z,41.85
2023-04-11T11:49:00.318Z,41.18
2023-04-11T11:50:03.273Z,40.43
2023-04-11T11:51:06.560Z,40.13
2023-04-11T11:52:10.228Z,39.49
2023-04-11T11:53:15.141Z,38.80
2023-04-11T11:54:17.317Z,38.96
2023-04-11T11:55:24.289Z,38.74
2023-04-11T11:56:28.451Z,38.49
2023-04-11T11:57:31.858Z,39.59
2023-04-11T11:58:37.703Z,40.17
2023-04-11T11:59:40.841Z,40.68
2023-04-11T12:00:45.402Z,42.37
2023-04-11T12:01:48.017Z,41.08
2023-04-11T12:02:55.823Z,38.77
2023-04-11T12:03:58.825Z,44.29
2023-04-11T12:05:07.501Z,39.66
2023-04-11T12:06:10.879Z,39.67
2023-04-11T12:07:13.261Z,38.74
2023-04-11T12:08:15.922Z,39.15
2023-04-11T12:09:18.198Z,39.27
2023-04-11T12:10:21.168Z,40.78
2023-04-11T12:11:24.651Z,39.85
2023-04-11T12:12:42.090Z,40.90
2023-04-11T12:13:46.074Z,38.43
2023-04-11T12:14:53.382Z,39.07
2023-04-11T12:15:57.548Z,38.17
2023-04-11T12:17:00.207Z,41.28
2023-04-11T12:18:06.375Z,39.04
2023-04-11T12:19:08.821Z,39.21
2023-04-11T12:20:11.801Z,39.70
2023-04-11T12:21:14.360Z,37.84
2023-04-11T12:22:18.560Z,36.10
2023-04-11T12:23:22.024Z,36.10
2023-04-11T12:24:24.359Z,40.08
2023-04-11T12:25:28.198Z,38.52
2023-04-11T12:26:30.712Z,40.07
2023-04-11T12:27:34.763Z,39.69
2023-04-11T12:28:37.016Z,39.40
2023-04-11T12:29:39.707Z,38.74
2023-04-11T12:30:41.976Z,39.98
2023-04-11T12:31:45.972Z,38.91
2023-04-11T12:32:48.562Z,39.28
2023-04-11T12:33:50.775Z,38.43
2023-04-11T12:34:53.829Z,37.73
2023-04-11T12:35:56.511Z,38.46
2023-04-11T12:37:01.610Z,38.51
2023-04-11T12:38:03.783Z,37.61
2023-04-11T12:39:07.121Z,39.53
2023-04-11T12:40:14.756Z,38.28
2023-04-11T12:42:26.645Z,38.19
2023-04-11T12:43:27.818Z,38.48
2023-04-11T12:44:30.222Z,40.08
2023-04-11T12:45:32.682Z,41.17
2023-04-11T12:46:36.269Z,38.49
2023-04-11T12:47:39.104Z,39.62
2023-04-11T12:48:41.487Z,39.64
2023-04-11T12:49:44.545Z,40.81
2023-04-11T12:50:48.696Z,38.68
2023-04-11T12:51:51.883Z,37.45
2023-04-11T12:52:55.690Z,41.25
2023-04-11T12:53:59.867Z,38.28
2023-04-11T12:55:04.637Z,37.95
2023-04-11T12:56:08.300Z,38.77
2023-04-11T12:57:13.861Z,37.84
2023-04-11T12:58:16.950Z,38.09
2023-04-11T12:59:20.312Z,37.50
2023-04-11T13:00:22.861Z,35.44
2023-04-11T13:01:25.864Z,35.37
2023-04-11T13:02:31.234Z,35.87
2023-04-11T13:03:34.148Z,35.24
2023-04-11T13:05:50.649Z,34.66
2023-04-11T13:06:53.129Z,34.52
2023-04-11T13:07:55.801Z,34.84
2023-04-11T13:08:58.879Z,34.24
2023-04-11T13:10:03.587Z,35.06
2023-04-11T13:11:06.633Z,34.95
2023-04-11T13:12:09.054Z,34.38
2023-04-11T13:14:16.405Z,35.53
2023-04-11T13:15:18.779Z,35.07
2023-04-11T13:16:21.303Z,34.97
2023-04-11T13:17:23.673Z,34.54
2023-04-11T13:18:26.329Z,35.01
2023-04-11T13:19:30.165Z,34.07
2023-04-11T13:20:33.897Z,34.33
2023-04-11T13:21:36.826Z,33.45
2023-04-11T13:22:44.641Z,33.83
2023-04-11T13:23:55.553Z,34.55
2023-04-11T13:24:58.588Z,34.88
2023-04-11T13:26:01.815Z,35.08
2023-04-11T13:27:03.999Z,33.97
2023-04-11T13:28:07.205Z,34.83
2023-04-11T13:29:10.200Z,35.01
2023-04-11T13:30:13.481Z,35.09
2023-04-11T13:31:16.605Z,34.70
2023-04-11T13:32:19.097Z,34.51
2023-04-11T13:33:22.246Z,34.52
2023-04-11T13:34:24.469Z,34.78
2023-04-11T13:35:27.346Z,34.71
2023-04-11T13:36:31.727Z,33.83
2023-04-11T13:37:35.242Z,33.48
2023-04-11T13:38:38.864Z,34.10
2023-04-11T13:39:41.751Z,34.17
2023-04-11T13:40:44.122Z,34.80
2023-04-11T13:41:46.079Z,35.56
2023-04-11T13:42:49.615Z,35.91
2023-04-11T13:43:52.672Z,36.60
2023-04-11T13:44:55.440Z,36.60
2023-04-11T13:45:57.771Z,35.98
2023-04-11T13:47:02.211Z,36.74
2023-04-11T13:48:05.380Z,36.18
2023-04-11T13:49:08.950Z,36.36
2023-04-11T13:50:13.821Z,36.18
2023-04-11T13:51:16.506Z,36.87
2023-04-11T13:52:18.694Z,36.06
2023-04-11T13:53:29.958Z,36.36
2023-04-11T13:54:40.046Z,36.58
2023-04-11T13:55:48.092Z,36.85
2023-04-11T13:56:51.310Z,37.93
2023-04-11T13:57:57.278Z,37.38
2023-04-11T13:58:59.940Z,37.38
2023-04-11T14:00:04.096Z,37.15
2023-04-11T14:01:07.703Z,37.10
2023-04-11T14:02:10.557Z,37.44
2023-04-11T14:03:14.917Z,37.66
2023-04-11T14:04:17.412Z,37.56
2023-04-11T14:05:20.119Z,37.50
2023-04-11T14:06:23.783Z,37.72